Time;durP1;ratioP1;P1;durP2;ratioP2;P2;SDS_P1;SDS_P2;PMS_P1;PMS_P2;Temp;Humidity;BMP_temperature;BMP_pressure;BME280_temperature;BME280_humidity;BME280_pressure;Samples;Min_cycle;Max_cycle;Signal;HPM_P1;HPM_P2
2023/07/30 07:01:22;;;;;;;0.45;0.45;;;19.50;99.90;20.50;100860.00;;;;6204664;22;2520344;-68
2023/07/30 07:03:53;;;;;;;0.90;0.90;;;18.80;99.90;21.30;100863.00;;;;6280710;22;20149;-67
2023/07/30 07:06:19;;;;;;;0.10;0.10;;;18.70;99.90;21.20;100872.00;;;;6309176;22;20198;-67
2023/07/30 07:08:51;;;;;;;8.07;1.75;;;18.70;99.90;19.30;100863.00;;;;6282234;22;20532;-67
2023/07/30 07:11:17;;;;;;;2.50;1.15;;;18.20;99.90;19.40;100861.00;;;;6280496;22;20231;-67
2023/07/30 07:13:45;;;;;;;0.85;0.85;;;17.90;99.90;19.60;100833.00;;;;6309188;22;20264;-67
2023/07/30 07:16:17;;;;;;;0.52;0.38;;;17.90;99.90;19.80;100856.00;;;;6309469;22;20227;-67
2023/07/30 07:18:43;;;;;;;1.88;1.23;;;18.10;99.90;20.50;100855.00;;;;6308141;22;20151;-67
2023/07/30 07:21:10;;;;;;;0.70;0.55;;;18.40;99.90;21.50;100870.00;;;;6308918;22;20548;-67
2023/07/30 07:23:39;;;;;;;0.32;0.32;;;19.00;99.90;21.30;100879.00;;;;6282003;22;20140;-68
2023/07/30 07:26:05;;;;;;;1.85;1.23;;;19.20;99.90;22.40;100876.00;;;;6281710;22;20161;-67
2023/07/30 07:28:33;;;;;;;2.30;0.50;;;19.60;99.90;22.00;100887.00;;;;6309353;22;20191;-67
2023/07/30 07:31:04;;;;;;;0.63;0.63;;;19.80;99.90;23.00;100865.00;;;;6306408;22;20596;-68
2023/07/30 07:33:32;;;;;;;6.90;1.27;;;20.20;99.90;21.00;100886.00;;;;6308740;22;20168;-68
2023/07/30 07:36:08;;;;;;;4.35;2.58;;;19.70;99.90;20.50;100875.00;;;;6308733;22;20147;-68
2023/07/30 07:38:34;;;;;;;0.52;0.52;;;18.90;99.90;20.40;100874.00;;;;6309280;22;20231;-69
2023/07/30 07:41:03;;;;;;;4.30;0.80;;;18.70;99.90;20.40;100878.00;;;;6307941;22;20151;-68
2023/07/30 07:43:29;;;;;;;6.38;2.00;;;18.70;99.90;20.30;100882.00;;;;6281924;22;20148;-68
2023/07/30 07:46:09;;;;;;;6.05;1.85;;;18.70;99.90;20.30;100879.00;;;;6308288;22;20220;-68
2023/07/30 07:48:42;;;;;;;8.38;1.05;;;18.80;99.90;20.40;100882.00;;;;6308081;22;20140;-68
2023/07/30 07:51:14;;;;;;;2.55;0.98;;;18.80;99.90;20.50;100894.00;;;;6281403;22;20156;-68
2023/07/30 07:53:43;;;;;;;11.13;3.03;;;18.90;99.90;20.10;100874.00;;;;6282296;22;20535;-68
2023/07/30 07:56:12;;;;;;;7.47;1.48;;;18.80;99.90;20.90;100880.00;;;;6281123;22;20225;-68
2023/07/30 07:58:43;;;;;;;4.55;1.48;;;19.00;99.90;20.70;100888.00;;;;6309074;22;20145;-68
2023/07/30 08:01:14;;;;;;;4.22;1.83;;;18.90;99.90;20.00;100895.00;;;;6255667;22;20512;-68
2023/07/30 08:03:48;;;;;;;3.20;0.80;;;18.70;99.90;22.10;100903.00;;;;6277315;22;20168;-68
2023/07/30 08:06:22;;;;;;;0.38;0.38;;;19.30;99.90;21.50;100902.00;;;;6277706;22;20173;-68
2023/07/30 08:09:02;;;;;;;0.10;0.10;;;19.40;99.90;22.40;100917.00;;;;6251555;22;20149;-68
2023/07/30 08:11:36;;;;;;;2.80;1.17;;;19.70;99.90;20.90;100902.00;;;;6277764;22;20202;-68
2023/07/30 08:14:07;;;;;;;0.40;0.40;;;19.50;99.90;21.50;100922.00;;;;6225242;22;20157;-68
2023/07/30 08:16:39;;;;;;;2.65;1.38;;;19.50;99.90;21.20;100913.00;;;;6225518;22;20153;-68
2023/07/30 08:19:10;;;;;;;1.50;0.38;;;19.40;99.90;21.00;100914.00;;;;6250521;22;20228;-68
2023/07/30 08:21:44;;;;;;;3.05;1.20;;;19.20;99.90;20.40;100906.00;;;;6250473;22;20184;-68
2023/07/30 08:24:10;;;;;;;6.13;1.02;;;19.00;99.90;20.20;100894.00;;;;6250527;22;20526;-68
2023/07/30 08:26:46;;;;;;;6.03;0.82;;;19.00;99.90;21.70;100924.00;;;;6250497;22;20137;-68
2023/07/30 08:29:20;;;;;;;1.02;0.40;;;19.60;99.90;20.90;100912.00;;;;6250595;22;20144;-67
2023/07/30 08:31:54;;;;;;;6.40;0.90;;;19.40;99.90;21.30;100910.00;;;;6249068;22;20176;-68
2023/07/30 08:34:23;;;;;;;0.50;0.45;;;19.70;99.90;21.50;100922.00;;;;6250785;22;20164;-68
2023/07/30 08:36:57;;;;;;;4.43;0.77;;;19.90;99.90;20.80;100913.00;;;;6277402;22;20137;-68
2023/07/30 08:39:23;;;;;;;4.60;1.75;;;19.50;99.90;21.50;100925.00;;;;6250640;22;20157;-68
2023/07/30 08:42:00;;;;;;;1.15;0.63;;;19.80;99.90;21.00;100924.00;;;;6277659;22;20224;-68
2023/07/30 08:44:26;;;;;;;3.05;1.48;;;19.60;99.90;20.50;100913.00;;;;6250981;22;20141;-68
2023/07/30 08:47:03;;;;;;;0.20;0.20;;;19.40;99.90;22.10;100933.00;;;;6276495;22;20206;-68
2023/07/30 08:49:34;;;;;;;0.30;0.30;;;19.70;99.90;22.80;100945.00;;;;6250707;22;20140;-68
2023/07/30 08:52:11;;;;;;;2.25;0.68;;;20.30;99.90;21.10;100936.00;;;;6277180;22;20222;-68
2023/07/30 08:54:38;;;;;;;3.53;1.65;;;20.10;99.90;21.30;100944.00;;;;6277369;22;20193;-68
2023/07/30 08:57:17;;;;;;;1.10;0.95;;;19.80;99.90;21.10;100930.00;;;;6250275;22;20214;-68
2023/07/30 09:00:16;;;;;;;5.93;1.00;;;19.90;99.90;21.60;100944.00;;;;6256898;22;20178;-74
2023/07/30 09:02:52;;;;;;;1.20;0.80;;;19.80;99.90;22.20;100932.00;;;;6306171;22;20172;-70
2023/07/30 09:05:22;;;;;;;0.32;0.32;;;20.00;99.90;23.60;100948.00;;;;6280249;22;20159;-69
2023/07/30 09:07:48;;;;;;;2.10;0.50;;;20.70;99.90;24.20;100968.00;;;;6281239;22;20481;-68
2023/07/30 09:10:15;;;;;;;2.40;0.63;;;21.40;99.90;22.40;100971.00;;;;6280961;22;20140;-68
2023/07/30 09:12:44;;;;;;;3.30;0.40;;;20.70;99.90;21.50;100975.00;;;;6307604;22;20616;-68
2023/07/30 09:15:15;;;;;;;2.63;1.00;;;20.30;99.90;21.30;100967.00;;;;6280836;22;20149;-68
2023/07/30 09:17:48;;;;;;;1.23;0.85;;;20.00;99.90;21.70;100966.00;;;;6279220;22;20143;-68
2023/07/30 09:20:19;;;;;;;4.95;1.05;;;19.90;99.90;21.10;100962.00;;;;6281248;22;20278;-68
2023/07/30 09:22:56;;;;;;;0.13;0.13;;;19.70;99.90;22.60;100958.00;;;;6280306;22;20186;-68
2023/07/30 09:25:30;;;;;;;0.47;0.20;;;20.00;99.90;23.20;100980.00;;;;6281706;22;20132;-68
2023/07/30 09:28:01;;;;;;;3.60;0.57;;;20.60;99.90;22.60;100971.00;;;;6280312;22;20159;-68
2023/07/30 09:30:33;;;;;;;0.10;0.10;;;20.50;99.90;22.50;100964.00;;;;6280102;22;20160;-68
2023/07/30 09:32:59;;;;;;;3.83;0.93;;;20.20;99.90;21.40;100979.00;;;;6307365;22;20168;-68
2023/07/30 09:35:29;;;;;;;0.35;0.28;;;20.10;99.90;22.50;100982.00;;;;6280511;22;20137;-68
2023/07/30 09:38:03;;;;;;;1.88;0.73;;;20.20;99.90;23.00;100986.00;;;;6276589;22;20168;-67
2023/07/30 09:40:49;;;;;;;0.63;0.40;;;20.80;99.90;24.50;101016.00;;;;6304263;22;20163;-67
2023/07/30 09:43:18;;;;;;;4.78;0.77;;;21.70;99.90;23.40;101030.00;;;;6250984;22;20160;-68
2023/07/30 09:45:47;;;;;;;3.00;1.02;;;21.60;99.90;23.90;101052.00;;;;6276881;22;20145;-70
2023/07/30 09:48:25;;;;;;;6.70;2.10;;;21.70;99.90;22.90;101023.00;;;;6277827;22;20230;-67
2023/07/30 09:51:03;;;;;;;1.73;1.58;;;21.10;99.90;23.80;101040.00;;;;6279482;22;20231;-67
2023/07/30 09:53:34;;;;;;;1.35;0.88;;;21.60;99.90;22.90;101052.00;;;;6278078;22;20237;-67
2023/07/30 09:56:07;;;;;;;0.47;0.47;;;21.50;99.90;23.80;101051.00;;;;6277959;22;20161;-67
2023/07/30 09:58:38;;;;;;;0.52;0.50;;;21.80;99.90;23.70;101074.00;;;;6278416;22;20197;-67
2023/07/30 10:01:06;;;;;;;8.20;1.45;;;21.90;99.90;24.00;101045.00;;;;6253083;22;20516;-69
2023/07/30 10:03:38;;;;;;;3.58;1.00;;;21.60;99.90;23.30;101060.00;;;;6222363;22;20210;-67
2023/07/30 10:06:12;;;;;;;2.42;0.85;;;21.70;99.90;24.10;101064.00;;;;6248742;22;20188;-66
2023/07/30 10:08:40;;;;;;;5.15;0.73;;;21.90;99.90;24.10;101073.00;;;;6248260;22;20148;-67
2023/07/30 10:11:10;;;;;;;1.90;1.17;;;21.70;99.90;24.40;101101.00;;;;6247352;22;20145;-66
2023/07/30 10:13:41;;;;;;;0.20;0.20;;;22.20;99.90;26.30;101110.00;;;;6221894;22;20173;-67
2023/07/30 10:16:33;;;;;;;3.10;1.15;;;23.10;99.90;24.40;101122.00;;;;6222580;22;20167;-67
2023/07/30 10:18:59;;;;;;;1.15;0.77;;;22.60;99.90;23.70;101122.00;;;;6274904;22;20156;-66
2023/07/30 10:33:53;;;;;;;0.68;0.68;;;21.70;99.90;24.70;101079.00;;;;5070091;28;20548;-68
2023/07/30 10:36:44;;;;;;;0.10;0.10;;;22.10;99.90;24.40;101094.00;;;;5049799;28;20632;-66
2023/07/30 10:39:28;;;;;;;0.20;0.20;;;21.90;99.90;24.60;101112.00;;;;5045686;28;20190;-68
2023/07/30 10:41:59;;;;;;;1.42;0.73;;;21.90;99.90;23.00;101137.00;;;;5044825;28;20182;-68
2023/07/30 10:44:31;;;;;;;3.50;1.38;;;21.50;99.90;22.60;101110.00;;;;5048495;28;20186;-68
2023/07/30 10:47:01;;;;;;;0.30;0.30;;;21.00;99.90;24.20;101094.00;;;;5049175;28;20178;-68
2023/07/30 10:50:00;;;;;;;2.75;0.60;;;21.30;99.90;24.30;101113.00;;;;5048590;28;20198;-68
2023/07/30 10:52:34;;;;;;;2.20;0.90;;;21.60;99.90;24.70;101116.00;;;;5039708;28;20214;-68
2023/07/30 10:55:44;;;;;;;6.03;1.67;;;22.20;99.90;25.30;101125.00;;;;5034360;28;20278;-68
2023/07/30 10:58:14;;;;;;;2.15;0.57;;;22.70;99.90;25.60;101147.00;;;;5033985;28;20237;-66
2023/07/30 11:00:54;;;;;;;0.60;0.38;;;23.00;99.90;24.10;101142.00;;;;5049570;28;20640;-66
2023/07/30 11:03:26;;;;;;;0.73;0.30;;;22.20;99.90;24.70;101129.00;;;;5043202;28;20660;-66
2023/07/30 11:06:39;;;;;;;6.43;1.63;;;22.20;99.90;24.30;101115.00;;;;5046548;28;20178;-66
2023/07/30 11:09:26;;;;;;;0.10;0.10;;;22.40;99.90;26.60;101131.00;;;;5048557;28;20272;-66
2023/07/30 11:11:55;;;;;;;0.50;0.50;;;23.10;99.90;25.80;101135.00;;;;5049120;28;20333;-67
2023/07/30 11:15:08;;;;;;;0.10;0.10;;;23.20;99.90;27.10;101138.00;;;;5047718;28;20641;-66
2023/07/30 11:17:55;;;;;;;2.05;0.57;;;24.00;99.90;24.40;101167.00;;;;5033148;28;20189;-66
2023/07/30 11:20:49;;;;;;;11.38;0.82;;;23.00;99.90;24.60;101169.00;;;;5048238;28;20545;-66
2023/07/30 11:23:34;;;;;;;0.20;0.20;;;22.40;99.90;25.50;101127.00;;;;5047689;28;20186;-66
2023/07/30 11:26:03;;;;;;;2.35;0.50;;;22.80;99.90;24.80;101163.00;;;;5044922;28;20183;-66
2023/07/30 11:29:00;;;;;;;0.47;0.47;;;22.70;99.90;24.90;101170.00;;;;5030757;28;20182;-66
2023/07/30 11:31:31;;;;;;;0.15;0.15;;;22.50;99.90;24.50;101173.00;;;;5042681;28;20742;-66
2023/07/30 11:34:04;;;;;;;0.40;0.40;;;22.30;99.90;25.70;101160.00;;;;5038722;28;20186;-66
2023/07/30 11:36:48;;;;;;;1.85;0.30;;;22.60;99.90;24.50;101162.00;;;;5046408;28;20652;-66
2023/07/30 11:39:39;;;;;;;2.00;1.85;;;22.40;99.90;23.60;101163.00;;;;5048829;28;20232;-68
2023/07/30 11:42:10;;;;;;;1.48;0.50;;;21.70;99.90;24.10;101188.00;;;;5046851;28;20663;-69
2023/07/30 11:44:43;;;;;;;0.13;0.13;;;21.70;99.90;24.70;101194.00;;;;5036377;28;20544;-66
2023/07/30 11:47:31;;;;;;;2.28;0.80;;;22.10;99.90;27.10;101174.00;;;;5034914;28;20186;-66
2023/07/30 11:50:15;;;;;;;0.70;0.40;;;23.40;99.90;25.50;101177.00;;;;5041845;28;20179;-66
2023/07/30 11:53:06;;;;;;;1.55;0.55;;;23.40;99.90;26.30;101177.00;;;;5033553;28;20217;-66
2023/07/30 11:55:57;;;;;;;1.65;0.68;;;23.80;99.90;25.00;101176.00;;;;5035663;28;20178;-66
2023/07/30 11:58:39;;;;;;;2.13;0.65;;;22.90;99.90;24.50;101192.00;;;;5026518;28;20190;-66
2023/07/30 12:01:27;;;;;;;2.47;0.60;;;22.80;99.90;25.30;101185.00;;;;5018376;28;20322;-67
2023/07/30 12:04:14;;;;;;;6.55;0.82;;;22.60;99.90;26.70;101174.00;;;;5031252;28;20260;-67
2023/07/30 12:07:05;;;;;;;1.30;0.73;;;23.30;99.90;25.70;101177.00;;;;5035171;28;20186;-67
2023/07/30 12:10:09;;;;;;;4.80;0.52;;;23.50;99.90;25.80;101175.00;;;;5033844;28;20197;-66
2023/07/30 12:13:21;;;;;;;3.45;0.75;;;23.10;99.90;25.50;101187.00;;;;5025782;28;20194;-66
2023/07/30 12:16:51;;;;;;;0.25;0.25;;;22.90;99.90;26.90;101155.00;;;;5030753;28;20200;-67
2023/07/30 12:19:45;;;;;;;0.10;0.10;;;23.10;99.90;25.40;101176.00;;;;5027563;28;20197;-66
2023/07/30 12:22:36;;;;;;;0.65;0.65;;;23.10;99.90;26.60;101157.00;;;;5040247;28;20225;-66
2023/07/30 12:25:26;;;;;;;2.38;0.93;;;23.20;99.90;26.20;101153.00;;;;5034857;28;20175;-66
2023/07/30 12:28:28;;;;;;;1.85;0.40;;;23.60;99.90;26.40;101138.00;;;;5032828;28;20190;-66
2023/07/30 12:31:32;;;;;;;0.17;0.17;;;23.70;99.90;25.70;101164.00;;;;5027873;28;20653;-66
2023/07/30 12:34:18;;;;;;;0.50;0.43;;;23.30;99.90;25.50;101160.00;;;;5034091;28;20186;-66
2023/07/30 12:37:09;;;;;;;1.27;0.40;;;23.10;99.90;25.30;101176.00;;;;5024753;28;20186;-66
2023/07/30 12:40:10;;;;;;;2.05;0.90;;;23.20;99.90;25.60;101153.00;;;;5017798;28;20699;-66
2023/07/30 12:43:14;;;;;;;4.18;2.10;;;23.20;99.90;26.50;101123.00;;;;5032960;28;20580;-66
2023/07/30 12:46:17;;;;;;;0.98;0.80;;;23.70;99.90;26.20;101137.00;;;;5012247;28;20194;-66
2023/07/30 12:49:12;;;;;;;2.13;0.93;;;23.60;99.90;24.90;101168.00;;;;5030806;28;20576;-66
2023/07/30 12:52:18;;;;;;;0.10;0.10;;;23.20;99.90;26.30;101143.00;;;;5034182;28;20234;-67
2023/07/30 12:55:19;;;;;;;0.50;0.50;;;23.30;99.90;25.90;101154.00;;;;5032701;28;20182;-67
2023/07/30 12:58:08;;;;;;;0.57;0.57;;;23.30;99.90;26.30;101139.00;;;;5032418;28;20212;-67
2023/07/30 13:01:17;;;;;;;0.40;0.40;;;23.50;99.90;25.70;101143.00;;;;5016881;28;20199;-67
2023/07/30 13:04:08;;;;;;;0.38;0.38;;;23.40;99.90;25.10;101173.00;;;;5026094;28;20266;-67
2023/07/30 13:07:11;;;;;;;0.95;0.95;;;22.90;99.90;26.30;101147.00;;;;5030867;28;20175;-67
2023/07/30 13:10:07;;;;;;;0.20;0.20;;;23.20;99.90;24.50;101186.00;;;;5020657;28;20549;-67
2023/07/30 13:12:56;;;;;;;0.22;0.22;;;22.80;99.90;25.30;101191.00;;;;5028697;28;20215;-67
2023/07/30 13:15:44;;;;;;;1.75;0.90;;;22.70;99.90;24.80;101200.00;;;;5031719;28;20201;-67
2023/07/30 13:18:26;;;;;;;1.10;0.75;;;22.70;99.90;25.60;101195.00;;;;5029229;28;20170;-67
2023/07/30 13:21:03;;;;;;;2.70;1.80;;;22.90;99.90;26.00;101175.00;;;;5032759;28;20206;-67
2023/07/30 13:23:34;;;;;;;0.85;0.28;;;23.10;99.90;26.10;101175.00;;;;5015659;28;20201;-67
2023/07/30 13:26:05;;;;;;;4.78;0.60;;;23.40;99.90;25.40;101192.00;;;;5033107;28;20194;-67
2023/07/30 13:28:37;;;;;;;0.52;0.50;;;23.10;99.90;25.00;101215.00;;;;5032417;28;20182;-67
2023/07/30 13:31:05;;;;;;;1.55;0.93;;;22.80;99.90;25.40;101209.00;;;;5033872;28;20179;-67
2023/07/30 13:33:40;;;;;;;1.23;0.70;;;22.80;99.90;25.10;101208.00;;;;5032796;28;20316;-67
2023/07/30 13:36:11;;;;;;;1.45;0.32;;;22.80;99.90;25.70;101203.00;;;;5031723;28;20579;-67
2023/07/30 13:38:41;;;;;;;5.18;1.00;;;22.90;99.90;25.50;101199.00;;;;5032346;28;20191;-67
2023/07/30 13:41:09;;;;;;;0.20;0.20;;;23.20;99.90;25.60;101208.00;;;;5031991;28;20736;-67
2023/07/30 13:43:44;;;;;;;1.95;0.88;;;23.20;99.90;26.10;101185.00;;;;5026551;28;20183;-67
2023/07/30 13:46:13;;;;;;;0.52;0.52;;;23.40;99.90;25.50;101201.00;;;;5031764;28;20539;-67
2023/07/30 13:49:02;;;;;;;0.95;0.43;;;23.30;99.90;26.10;101158.00;;;;5032682;28;20233;-67
2023/07/30 13:51:41;;;;;;;6.35;1.38;;;23.60;99.90;25.90;101188.00;;;;5032585;28;20214;-67
2023/07/30 13:54:10;;;;;;;1.33;0.90;;;23.50;99.90;25.20;101192.00;;;;5016633;28;20538;-67
2023/07/30 13:56:47;;;;;;;0.85;0.80;;;23.20;99.90;26.10;101181.00;;;;5031911;28;20271;-67
2023/07/30 13:59:24;;;;;;;3.88;0.70;;;23.30;99.90;25.50;101195.00;;;;5033395;28;20190;-67
2023/07/30 14:01:52;;;;;;;6.30;1.40;;;23.30;99.90;26.50;101154.00;;;;5033027;28;20695;-67
2023/07/30 14:04:27;;;;;;;2.42;1.45;;;23.60;99.90;25.40;101209.00;;;;5031991;28;20604;-67
2023/07/30 14:06:56;;;;;;;1.17;0.75;;;23.30;99.90;25.10;101222.00;;;;5027293;28;20190;-67
2023/07/30 14:09:33;;;;;;;0.47;0.47;;;22.90;99.90;25.00;101210.00;;;;5031011;28;20699;-67
2023/07/30 14:11:59;;;;;;;3.10;0.30;;;22.80;99.90;26.60;101206.00;;;;5033037;28;20224;-68
2023/07/30 14:14:34;;;;;;;6.10;1.35;;;23.30;99.90;24.80;101244.00;;;;5032960;28;20195;-67
2023/07/30 14:17:06;;;;;;;1.13;0.60;;;23.10;99.90;25.50;101238.00;;;;5032422;28;20186;-68
2023/07/30 14:19:33;;;;;;;0.60;0.52;;;22.90;99.90;25.10;101252.00;;;;5033156;28;20190;-68
2023/07/30 14:22:05;;;;;;;4.97;1.65;;;22.70;99.90;24.90;101252.00;;;;5036162;28;20219;-68
2023/07/30 14:24:31;;;;;;;2.30;0.88;;;22.60;99.90;24.60;101239.00;;;;5025016;28;20206;-67
2023/07/30 14:26:57;;;;;;;1.23;0.52;;;22.50;99.90;25.30;101263.00;;;;5032580;28;20525;-67
2023/07/30 14:29:23;;;;;;;4.97;0.85;;;22.50;99.90;24.30;101283.00;;;;5032907;28;20188;-67
2023/07/30 14:31:49;;;;;;;0.50;0.50;;;22.40;99.90;24.30;101270.00;;;;5031060;28;20242;-68
2023/07/30 14:34:15;;;;;;;0.88;0.70;;;22.00;99.90;24.40;101257.00;;;;5031034;28;20202;-67
2023/07/30 14:36:46;;;;;;;4.05;0.95;;;21.90;99.90;24.00;101251.00;;;;5032813;28;20197;-67
2023/07/30 14:39:15;;;;;;;5.85;1.20;;;21.80;99.90;24.10;101251.00;;;;5031729;28;20554;-68
2023/07/30 14:41:46;;;;;;;4.57;0.93;;;21.90;99.90;24.00;101260.00;;;;5028507;28;20194;-67
2023/07/30 14:44:15;;;;;;;11.25;1.15;;;22.00;99.90;24.60;101237.00;;;;5030838;28;20572;-67
2023/07/30 14:46:59;;;;;;;3.88;1.30;;;22.20;99.90;23.90;101239.00;;;;5032762;28;20191;-67
2023/07/30 14:49:40;;;;;;;0.38;0.32;;;22.00;99.90;24.50;101218.00;;;;5031228;28;20608;-68
2023/07/30 14:52:11;;;;;;;1.67;1.17;;;22.00;99.90;24.60;101218.00;;;;5029180;28;20274;-68
2023/07/30 14:55:15;;;;;;;0.63;0.40;;;22.00;99.90;25.40;101208.00;;;;5039999;28;20191;-68
2023/07/30 14:58:09;;;;;;;2.53;0.70;;;22.20;99.90;24.60;101234.00;;;;5036819;28;20620;-67
2023/07/30 15:00:57;;;;;;;1.17;0.85;;;22.10;99.90;23.30;101211.00;;;;5032355;28;20212;-68
2023/07/30 15:03:47;;;;;;;4.65;2.45;;;21.50;99.90;24.40;101215.00;;;;5033102;28;20190;-68
2023/07/30 15:06:21;;;;;;;2.53;0.85;;;21.60;99.90;24.10;101223.00;;;;5025493;28;20186;-68
2023/07/30 15:08:57;;;;;;;3.03;1.63;;;21.70;99.90;23.20;101190.00;;;;5034938;28;20179;-67
2023/07/30 15:11:40;;;;;;;5.28;1.48;;;21.30;99.90;23.20;101176.00;;;;5032668;28;20186;-68
2023/07/30 15:14:17;;;;;;;2.22;1.50;;;21.00;99.90;21.60;101124.00;;;;5031695;28;20187;-68
2023/07/30 15:17:03;;;;;;;7.13;1.98;;;20.50;99.90;22.40;101123.00;;;;5035868;28;20174;-68
2023/07/30 15:19:28;;;;;;;2.78;1.48;;;20.50;99.90;21.70;101146.00;;;;5039745;28;20190;-68
2023/07/30 15:22:00;;;;;;;1.92;1.80;;;20.30;99.90;20.70;101108.00;;;;5057317;28;20209;-68
2023/07/30 15:24:29;;;;;;;14.60;1.30;;;19.60;99.90;20.80;101135.00;;;;5036063;28;20641;-68
2023/07/30 15:27:06;;;;;;;3.35;1.00;;;19.20;99.90;20.40;101116.00;;;;5045124;28;20190;-68
2023/07/30 15:29:35;;;;;;;0.55;0.40;;;18.90;99.90;20.20;101119.00;;;;5048464;28;20225;-67
2023/07/30 15:32:07;;;;;;;1.63;0.52;;;18.80;99.90;20.30;101117.00;;;;5039961;28;20256;-67
2023/07/30 15:34:38;;;;;;;0.45;0.45;;;18.80;99.90;20.30;101111.00;;;;5042057;28;20629;-67
2023/07/30 15:37:08;;;;;;;0.20;0.20;;;18.70;99.90;21.50;101108.00;;;;5041769;28;20210;-67
2023/07/30 15:39:54;;;;;;;1.13;1.13;;;18.80;99.90;21.50;101115.00;;;;5036043;28;20194;-67
2023/07/30 15:42:48;;;;;;;1.30;0.45;;;19.00;99.90;21.00;101109.00;;;;5047688;28;20209;-68
2023/07/30 15:45:42;;;;;;;3.10;1.27;;;19.00;99.90;20.30;101112.00;;;;5038542;28;20190;-67
2023/07/30 15:48:14;;;;;;;0.47;0.43;;;18.80;99.90;20.90;101102.00;;;;5035564;28;20197;-68
2023/07/30 15:50:57;;;;;;;1.08;0.68;;;18.90;99.90;21.00;101115.00;;;;5039238;28;20188;-67
2023/07/30 15:53:37;;;;;;;0.25;0.25;;;18.90;99.90;21.80;101112.00;;;;5038253;28;20235;-67
2023/07/30 15:56:24;;;;;;;0.10;0.10;;;19.20;99.90;21.30;101102.00;;;;5021882;28;20219;-67
2023/07/30 15:58:52;;;;;;;3.15;1.08;;;19.00;99.90;21.90;101123.00;;;;5039808;28;20666;-67
2023/07/30 16:01:26;;;;;;;0.17;0.17;;;19.40;99.90;21.50;101096.00;;;;5037563;28;20233;-67
2023/07/30 16:04:06;;;;;;;0.10;0.10;;;19.20;99.90;21.80;101094.00;;;;5035058;28;20190;-67
2023/07/30 16:06:31;;;;;;;0.20;0.20;;;19.30;99.90;22.90;101110.00;;;;5022301;28;20247;-67
2023/07/30 16:09:03;;;;;;;0.20;0.20;;;19.70;99.90;22.80;101111.00;;;;5034777;28;20653;-67
2023/07/30 16:11:38;;;;;;;0.10;0.10;;;19.90;99.90;22.00;101093.00;;;;5029238;28;20510;-68
2023/07/30 16:14:05;;;;;;;0.40;0.40;;;19.50;99.90;21.00;101110.00;;;;5044207;28;20645;-68
2023/07/30 16:16:38;;;;;;;5.57;0.82;;;19.30;99.90;21.00;101094.00;;;;5040097;28;20191;-68
2023/07/30 16:19:13;;;;;;;6.13;0.63;;;19.00;99.90;21.50;101089.00;;;;5026095;28;20244;-67
2023/07/30 16:21:49;;;;;;;6.88;6.25;;;19.10;99.90;20.30;101087.00;;;;5034818;28;20193;-66
2023/07/30 16:24:24;;;;;;;2.55;1.30;;;18.60;99.90;19.50;101094.00;;;;5041089;28;20276;-67
2023/07/30 16:26:53;;;;;;;0.20;0.20;;;18.20;99.90;21.40;101088.00;;;;5042738;28;20187;-66
2023/07/30 16:29:22;;;;;;;0.50;0.50;;;18.50;99.90;21.00;101086.00;;;;5034193;28;20280;-66
2023/07/30 16:31:59;;;;;;;0.20;0.20;;;18.40;99.90;20.30;101084.00;;;;5053361;28;20806;-66
2023/07/30 16:34:30;;;;;;;0.97;0.90;;;18.10;99.90;20.70;101095.00;;;;5033993;28;20190;-67
2023/07/30 16:37:04;;;;;;;0.80;0.80;;;18.20;99.90;20.00;101089.00;;;;5036519;28;20189;-67
2023/07/30 16:39:38;;;;;;;0.30;0.30;;;18.10;99.90;21.10;101082.00;;;;5035197;28;20204;-67
2023/07/30 16:42:08;;;;;;;0.40;0.40;;;18.20;99.90;21.30;101069.00;;;;5038717;28;20201;-67
2023/07/30 16:44:40;;;;;;;0.60;0.60;;;18.40;99.90;20.80;101045.00;;;;5037871;28;20192;-68
2023/07/30 16:47:08;;;;;;;0.90;0.90;;;18.30;99.90;21.20;101066.00;;;;5043532;28;20250;-67
2023/07/30 16:49:34;;;;;;;0.70;0.70;;;18.30;99.90;20.70;101069.00;;;;5045893;28;20200;-67
2023/07/30 16:52:06;;;;;;;0.80;0.80;;;18.20;99.90;20.80;101064.00;;;;5035085;28;20223;-67
2023/07/30 16:54:37;;;;;;;0.70;0.70;;;18.10;99.90;21.10;101061.00;;;;5036923;28;20532;-67
2023/07/30 16:57:13;;;;;;;0.80;0.80;;;18.20;99.90;20.30;101056.00;;;;5055692;28;20189;-68
2023/07/30 16:59:41;;;;;;;0.90;0.90;;;18.00;99.90;20.40;101052.00;;;;5037384;28;20184;-68
2023/07/30 17:02:10;;;;;;;0.60;0.60;;;17.90;99.90;20.70;101059.00;;;;5034746;28;20412;-68
2023/07/30 17:04:47;;;;;;;0.60;0.60;;;18.00;99.90;20.50;101064.00;;;;5036928;28;20287;-68
2023/07/30 17:07:24;;;;;;;0.67;0.67;;;17.80;99.90;20.30;101059.00;;;;5040188;28;20186;-68
2023/07/30 17:09:56;;;;;;;0.90;0.90;;;17.80;99.90;20.50;101055.00;;;;5053445;28;20194;-68
2023/07/30 17:12:27;;;;;;;0.90;0.90;;;17.90;99.90;19.90;101056.00;;;;5045198;28;20216;-68
2023/07/30 17:14:58;;;;;;;0.77;0.77;;;17.80;99.90;19.70;101051.00;;;;5038146;28;20194;-68
2023/07/30 17:17:46;;;;;;;1.20;1.20;;;17.50;99.90;20.40;101052.00;;;;5037565;28;20195;-68
2023/07/30 17:20:59;;;;;;;0.80;0.80;;;17.60;99.90;19.70;101053.00;;;;5033739;28;20198;-68
2023/07/30 17:23:51;;;;;;;0.60;0.60;;;17.70;99.90;20.40;101047.00;;;;5032592;28;20193;-68
2023/07/30 17:26:51;;;;;;;0.60;0.60;;;17.60;99.90;20.10;101019.00;;;;5013501;28;20243;-68
2023/07/30 17:29:50;;;;;;;0.60;0.60;;;17.60;99.90;20.10;101034.00;;;;5032213;28;20262;-68
2023/07/30 17:32:30;;;;;;;0.63;0.63;;;17.60;99.90;19.50;101037.00;;;;5017535;28;20656;-68
2023/07/30 17:35:21;;;;;;;3.10;1.20;;;17.40;99.90;19.60;101038.00;;;;5024028;28;20202;-68
2023/07/30 17:38:04;;;;;;;0.53;0.53;;;17.30;99.90;19.80;101036.00;;;;5011132;28;20203;-68
2023/07/30 17:40:54;;;;;;;0.50;0.50;;;17.40;99.90;19.60;101039.00;;;;5032182;28;20195;-68
2023/07/30 17:43:43;;;;;;;1.23;0.60;;;17.40;99.90;19.80;101039.00;;;;5058437;28;20241;-68
2023/07/30 17:46:23;;;;;;;0.60;0.60;;;17.30;99.90;19.40;101029.00;;;;5031496;28;20176;-68
2023/07/30 17:49:12;;;;;;;0.60;0.60;;;17.30;99.90;19.50;101031.00;;;;5032768;28;20184;-68
2023/07/30 17:51:54;;;;;;;0.50;0.50;;;17.30;99.90;19.90;101005.00;;;;5033003;28;20247;-68
2023/07/30 17:55:07;;;;;;;0.40;0.40;;;17.40;99.90;20.30;101029.00;;;;5038632;28;20274;-68
2023/07/30 17:57:41;;;;;;;0.40;0.40;;;17.50;99.90;20.20;101016.00;;;;5032526;28;20311;-68
2023/07/30 18:00:11;;;;;;;0.40;0.40;;;17.70;99.90;20.80;101019.00;;;;5033257;28;20196;-68
2023/07/30 18:03:00;;;;;;;0.57;0.57;;;17.90;99.90;20.70;101003.00;;;;5031747;28;20188;-68
2023/07/30 18:05:29;;;;;;;0.40;0.40;;;17.80;99.90;21.10;101010.00;;;;5007904;28;20204;-68
2023/07/30 18:08:23;;;;;;;0.40;0.40;;;18.00;99.90;19.70;101018.00;;;;5032706;28;20640;-68
2023/07/30 18:11:41;;;;;;;0.63;0.63;;;17.70;99.90;20.30;101016.00;;;;5033302;28;20192;-68
2023/07/30 18:17:08;;;;;;;0.70;0.70;;;18.00;99.90;20.10;101014.00;;;;5030660;28;20291;-68
2023/07/30 18:20:11;;;;;;;0.70;0.70;;;17.90;99.90;20.30;101023.00;;;;5024550;28;20604;-68
2023/07/30 18:22:37;;;;;;;0.57;0.57;;;17.80;99.90;20.30;101010.00;;;;5030142;28;20213;-68
2023/07/30 18:25:11;;;;;;;0.50;0.50;;;17.90;99.90;20.90;101028.00;;;;5041408;28;20175;-68
2023/07/30 18:27:40;;;;;;;0.50;0.50;;;18.00;99.90;21.10;101001.00;;;;5035414;28;20230;-68
2023/07/30 18:30:14;;;;;;;0.40;0.40;;;18.20;99.90;20.40;101018.00;;;;5032839;28;20176;-68
2023/07/30 18:32:48;;;;;;;0.50;0.50;;;18.00;99.90;19.80;101012.00;;;;5034738;28;20227;-67
2023/07/30 18:35:20;;;;;;;0.50;0.50;;;17.90;99.90;20.90;101007.00;;;;5040311;28;20187;-68
2023/07/30 18:37:49;;;;;;;0.50;0.50;;;18.00;99.90;21.20;101017.00;;;;5034909;28;20214;-67
2023/07/30 18:40:31;;;;;;;0.50;0.50;;;18.20;99.90;20.70;101007.00;;;;5031614;28;20730;-67
2023/07/30 18:43:10;;;;;;;1.50;1.27;;;18.10;99.90;21.00;101013.00;;;;5014776;28;20200;-67
2023/07/30 18:46:00;;;;;;;0.90;0.90;;;18.20;99.90;20.50;101011.00;;;;5031387;28;20634;-67
2023/07/30 18:48:40;;;;;;;0.40;0.40;;;18.00;99.90;21.30;100996.00;;;;5031896;28;20176;-67
2023/07/30 18:51:11;;;;;;;1.20;1.10;;;18.30;99.90;20.50;101001.00;;;;5037680;28;20548;-67